Time;durP1;ratioP1;P1;durP2;ratioP2;P2;SDS_P1;SDS_P2;PMS_P1;PMS_P2;Temp;Humidity;BMP_temperature;BMP_pressure;BME280_temperature;BME280_humidity;BME280_pressure;Samples;Min_cycle;Max_cycle;Signal;HPM_P1;HPM_P2
2022/04/23 00:00:00;;;;;;;;;;;8.50;99.90;;;;;;5070909;28;19931;-75
2022/04/23 00:02:27;;;;;;;;;;;8.60;99.90;;;;;;5071668;28;20539;-75
2022/04/23 00:04:54;;;;;;;;;;;8.50;99.90;;;;;;5090066;28;20090;-75
2022/04/23 00:07:21;;;;;;;;;;;8.50;99.90;;;;;;5069823;28;19939;-74
2022/04/23 00:09:48;;;;;;;;;;;8.50;99.90;;;;;;5056832;28;19929;-75
2022/04/23 00:12:14;;;;;;;;;;;8.50;99.90;;;;;;5071353;28;19975;-74
2022/04/23 00:14:45;;;;;;;;;;;8.40;99.90;;;;;;5067802;28;19960;-74
2022/04/23 00:17:11;;;;;;;;;;;8.40;99.90;;;;;;5066877;28;20314;-74
2022/04/23 00:19:38;;;;;;;;;;;8.40;99.90;;;;;;5070161;28;20023;-74
2022/04/23 00:22:05;;;;;;;;;;;8.30;99.90;;;;;;5070440;28;19924;-74
2022/04/23 00:24:32;;;;;;;;;;;8.30;99.90;;;;;;5070671;28;19963;-74
2022/04/23 00:27:00;;;;;;;;;;;8.40;99.90;;;;;;5069639;28;19924;-74
2022/04/23 00:29:28;;;;;;;;;;;8.30;99.90;;;;;;5062859;28;19924;-74
2022/04/23 00:31:55;;;;;;;;;;;8.30;99.90;;;;;;5069124;28;19935;-74
2022/04/23 00:34:22;;;;;;;;;;;8.30;99.90;;;;;;5064554;28;19924;-74
2022/04/23 00:36:49;;;;;;;;;;;8.40;99.90;;;;;;5066357;28;19930;-74
2022/04/23 00:39:15;;;;;;;;;;;8.40;99.90;;;;;;5067373;28;19946;-74
2022/04/23 00:41:52;;;;;;;;;;;8.30;99.90;;;;;;5073257;28;20336;-74
2022/04/23 00:44:20;;;;;;;;;;;8.20;99.90;;;;;;5067183;28;19928;-75
2022/04/23 00:46:47;;;;;;;;;;;8.10;99.90;;;;;;5063127;28;19925;-75
2022/04/23 00:49:14;;;;;;;;;;;8.10;99.90;;;;;;5067379;28;19924;-74
2022/04/23 00:51:41;;;;;;;;;;;8.10;99.90;;;;;;5067992;28;19924;-75
2022/04/23 00:54:09;;;;;;;;;;;8.20;99.90;;;;;;5064318;28;19924;-75
2022/04/23 00:56:36;;;;;;;;;;;8.20;99.90;;;;;;5100945;28;19932;-75
2022/04/23 00:59:06;;;;;;;;;;;8.10;99.90;;;;;;5070085;28;20170;-75
2022/04/23 01:01:34;;;;;;;;;;;8.10;99.90;;;;;;5065409;28;19941;-75
2022/04/23 01:04:05;;;;;;;;;;;8.00;99.90;;;;;;5059571;28;19929;-75
2022/04/23 01:06:34;;;;;;;;;;;7.90;99.90;;;;;;5068907;28;19924;-75
2022/04/23 01:09:05;;;;;;;;;;;7.80;99.90;;;;;;5068018;28;20302;-75
2022/04/23 01:11:37;;;;;;;;;;;7.70;99.90;;;;;;5069275;28;19925;-74
2022/04/23 01:14:06;;;;;;;;;;;7.60;99.90;;;;;;5066692;28;19933;-75
2022/04/23 01:16:33;;;;;;;;;;;7.60;99.90;;;;;;5097590;28;20566;-75
2022/04/23 01:19:07;;;;;;;;;;;7.50;99.90;;;;;;5067645;28;19925;-75
2022/04/23 01:21:36;;;;;;;;;;;7.50;99.90;;;;;;5067397;28;20023;-75
2022/04/23 01:24:03;;;;;;;;;;;7.50;99.90;;;;;;5067016;28;19924;-75
2022/04/23 01:26:30;;;;;;;;;;;7.50;99.90;;;;;;5070737;28;19924;-75
2022/04/23 01:28:57;;;;;;;;;;;7.50;99.90;;;;;;5067334;28;19925;-75
2022/04/23 01:31:24;;;;;;;;;;;7.40;99.90;;;;;;5070493;28;19944;-75
2022/04/23 01:33:51;;;;;;;;;;;7.40;99.90;;;;;;5097414;28;19928;-74
2022/04/23 01:36:18;;;;;;;;;;;7.40;99.90;;;;;;5065091;28;19936;-74
2022/04/23 01:38:44;;;;;;;;;;;7.40;99.90;;;;;;5066986;28;19951;-73
2022/04/23 01:41:11;;;;;;;;;;;7.40;99.90;;;;;;5068292;28;19935;-73
2022/04/23 01:43:38;;;;;;;;;;;7.30;99.90;;;;;;5067892;28;20541;-74
2022/04/23 01:46:05;;;;;;;;;;;7.30;99.90;;;;;;5066085;28;20006;-74
2022/04/23 01:48:31;;;;;;;;;;;7.30;99.90;;;;;;5065605;28;20326;-75
2022/04/23 01:50:58;;;;;;;;;;;7.30;99.90;;;;;;5064767;28;19934;-74
2022/04/23 01:53:25;;;;;;;;;;;7.40;99.90;;;;;;5068367;28;19931;-74
2022/04/23 01:55:52;;;;;;;;;;;7.30;99.90;;;;;;5064435;28;19928;-74
2022/04/23 01:58:19;;;;;;;;;;;7.40;99.90;;;;;;5064480;28;19931;-74
2022/04/23 02:00:46;;;;;;;;;;;7.30;99.90;;;;;;5066675;28;19966;-74
2022/04/23 02:03:15;;;;;;;;;;;7.30;99.90;;;;;;5099389;28;19986;-74
2022/04/23 02:05:42;;;;;;;;;;;7.20;99.90;;;;;;5100734;28;20307;-73
2022/04/23 02:08:09;;;;;;;;;;;7.30;99.90;;;;;;5069686;28;19929;-74
2022/04/23 02:10:35;;;;;;;;;;;7.20;99.90;;;;;;5067813;28;19932;-74
2022/04/23 02:13:03;;;;;;;;;;;7.20;99.90;;;;;;5068187;28;19931;-74
2022/04/23 02:15:30;;;;;;;;;;;7.30;99.90;;;;;;5090952;28;19931;-74
2022/04/23 02:18:05;;;;;;;;;;;7.30;99.90;;;;;;5068410;28;19986;-74
2022/04/23 02:20:32;;;;;;;;;;;7.40;99.90;;;;;;5067191;28;19925;-75
2022/04/23 02:22:59;;;;;;;;;;;7.40;99.90;;;;;;5068646;28;19924;-74
2022/04/23 02:25:25;;;;;;;;;;;7.40;99.90;;;;;;5065250;28;19932;-74
2022/04/23 02:27:52;;;;;;;;;;;7.30;99.90;;;;;;5066615;28;19928;-74
2022/04/23 02:30:19;;;;;;;;;;;7.40;99.90;;;;;;5068887;28;19925;-74
2022/04/23 02:32:47;;;;;;;;;;;7.30;99.90;;;;;;5063833;28;20371;-74
2022/04/23 02:35:15;;;;;;;;;;;7.30;99.90;;;;;;5061402;28;20379;-74
2022/04/23 02:37:44;;;;;;;;;;;7.20;99.90;;;;;;5068541;28;19967;-74
2022/04/23 02:40:12;;;;;;;;;;;7.10;99.90;;;;;;5066631;28;19924;-73
2022/04/23 02:42:41;;;;;;;;;;;7.10;99.90;;;;;;5066373;28;19933;-73
2022/04/23 02:45:09;;;;;;;;;;;7.00;99.90;;;;;;5066969;28;19928;-74
2022/04/23 02:47:44;;;;;;;;;;;7.10;99.90;;;;;;5066636;28;19924;-74
2022/04/23 02:50:12;;;;;;;;;;;7.00;99.90;;;;;;5064666;28;19932;-74
2022/04/23 02:52:42;;;;;;;;;;;6.90;99.90;;;;;;5063408;28;19925;-74
2022/04/23 02:55:09;;;;;;;;;;;6.90;99.90;;;;;;5067931;28;20007;-74
2022/04/23 02:57:40;;;;;;;;;;;6.90;99.90;;;;;;5064240;28;19947;-74
2022/04/23 03:00:07;;;;;;;;;;;6.80;99.90;;;;;;5065814;28;19924;-76
2022/04/23 03:02:36;;;;;;;;;;;6.80;99.90;;;;;;5064266;28;19928;-76
2022/04/23 03:05:04;;;;;;;;;;;6.70;99.90;;;;;;5061002;28;19928;-76
2022/04/23 03:07:31;;;;;;;;;;;6.70;99.90;;;;;;5063892;28;20101;-74
2022/04/23 03:09:59;;;;;;;;;;;6.60;99.90;;;;;;5063491;28;19930;-74
2022/04/23 03:12:25;;;;;;;;;;;6.60;99.90;;;;;;5064476;28;19928;-74
2022/04/23 03:14:57;;;;;;;;;;;6.60;99.90;;;;;;5066087;28;20006;-74
2022/04/23 03:17:24;;;;;;;;;;;6.60;99.90;;;;;;5095131;28;19935;-74
2022/04/23 03:19:50;;;;;;;;;;;6.60;99.90;;;;;;5067569;28;20043;-74
2022/04/23 03:22:19;;;;;;;;;;;6.50;99.90;;;;;;5066916;28;19931;-76
2022/04/23 03:24:46;;;;;;;;;;;6.50;99.90;;;;;;5061900;28;20044;-74
2022/04/23 03:27:13;;;;;;;;;;;6.50;99.90;;;;;;5066206;28;19939;-74
2022/04/23 03:29:45;;;;;;;;;;;6.50;99.90;;;;;;5060933;28;19931;-74
2022/04/23 03:32:15;;;;;;;;;;;6.50;99.90;;;;;;5065503;28;19944;-74
2022/04/23 03:34:42;;;;;;;;;;;6.50;99.90;;;;;;5094830;28;19924;-74
2022/04/23 03:37:09;;;;;;;;;;;6.40;99.90;;;;;;5065056;28;19932;-74
2022/04/23 03:39:36;;;;;;;;;;;6.40;99.90;;;;;;5066738;28;19962;-74
2022/04/23 03:42:04;;;;;;;;;;;6.40;99.90;;;;;;5067859;28;20419;-74
2022/04/23 03:44:31;;;;;;;;;;;6.50;99.90;;;;;;5066552;28;19925;-74
2022/04/23 03:46:59;;;;;;;;;;;6.60;99.90;;;;;;5100534;28;20019;-74
2022/04/23 03:49:26;;;;;;;;;;;6.70;99.90;;;;;;5066113;28;19924;-76
2022/04/23 03:51:52;;;;;;;;;;;6.80;99.90;;;;;;5068537;28;19983;-74
2022/04/23 03:54:19;;;;;;;;;;;7.00;99.90;;;;;;5063421;28;19935;-75
2022/04/23 03:56:46;;;;;;;;;;;7.20;99.90;;;;;;5067389;28;19938;-75
2022/04/23 03:59:14;;;;;;;;;;;7.30;99.90;;;;;;5066342;28;19925;-75
2022/04/23 04:01:41;;;;;;;;;;;7.40;99.90;;;;;;5067551;28;19970;-75
2022/04/23 04:04:08;;;;;;;;;;;7.50;99.90;;;;;;5057238;28;19924;-74
2022/04/23 04:06:35;;;;;;;;;;;7.60;99.90;;;;;;5067586;28;20050;-75
2022/04/23 04:09:04;;;;;;;;;;;7.60;99.90;;;;;;5065664;28;19959;-75
2022/04/23 04:14:19;;;;;;;;;;;7.70;99.90;;;;;;5064727;28;19924;-74
2022/04/23 04:16:46;;;;;;;;;;;7.70;99.90;;;;;;5066048;28;19925;-74
2022/04/23 04:19:14;;;;;;;;;;;7.70;99.90;;;;;;5064445;28;19925;-74
2022/04/23 04:21:43;;;;;;;;;;;7.70;99.90;;;;;;5063125;28;19931;-74
2022/04/23 04:24:13;;;;;;;;;;;7.70;99.90;;;;;;5067964;28;20339;-74
2022/04/23 04:26:40;;;;;;;;;;;7.60;99.90;;;;;;5053364;28;20478;-74
2022/04/23 04:29:07;;;;;;;;;;;7.60;99.90;;;;;;5061400;28;20546;-74
2022/04/23 04:31:47;;;;;;;;;;;7.60;99.90;;;;;;5064963;28;20155;-74
2022/04/23 04:34:14;;;;;;;;;;;7.60;99.90;;;;;;5064982;28;19931;-74
2022/04/23 04:36:41;;;;;;;;;;;7.70;99.90;;;;;;5067428;28;19939;-75
2022/04/23 04:39:07;;;;;;;;;;;7.70;99.90;;;;;;5069261;28;20284;-75
2022/04/23 04:41:35;;;;;;;;;;;7.80;99.90;;;;;;5071462;28;20356;-75
2022/04/23 04:44:02;;;;;;;;;;;7.80;99.90;;;;;;5071005;28;20035;-74
2022/04/23 04:46:29;;;;;;;;;;;7.80;99.90;;;;;;5069888;28;19925;-75
2022/04/23 04:48:55;;;;;;;;;;;7.90;99.90;;;;;;5067498;28;19924;-74
2022/04/23 04:51:22;;;;;;;;;;;8.00;99.90;;;;;;5101787;28;19924;-74
2022/04/23 04:53:51;;;;;;;;;;;8.10;99.90;;;;;;5067839;28;20375;-74
2022/04/23 04:56:18;;;;;;;;;;;8.10;99.90;;;;;;5072142;28;20006;-74
2022/04/23 04:58:47;;;;;;;;;;;8.20;99.90;;;;;;5065960;28;19934;-74
2022/04/23 05:01:14;;;;;;;;;;;8.30;99.90;;;;;;5069182;28;20336;-74
2022/04/23 05:03:41;;;;;;;;;;;8.40;99.90;;;;;;5064698;28;19932;-75
2022/04/23 05:06:08;;;;;;;;;;;8.50;99.90;;;;;;5071301;28;19955;-75
2022/04/23 05:08:35;;;;;;;;;;;8.60;99.90;;;;;;5068508;28;19928;-75
2022/04/23 05:11:03;;;;;;;;;;;8.70;99.90;;;;;;5070427;28;19935;-75
2022/04/23 05:13:30;;;;;;;;;;;8.80;99.90;;;;;;5070374;28;19931;-75
2022/04/23 05:15:57;;;;;;;;;;;8.90;99.90;;;;;;5060147;28;19963;-75
2022/04/23 05:18:23;;;;;;;;;;;9.10;99.90;;;;;;5068680;28;20383;-75
2022/04/23 05:20:50;;;;;;;;;;;9.20;99.90;;;;;;5066384;28;20407;-74
2022/04/23 05:23:16;;;;;;;;;;;9.40;99.90;;;;;;5066929;28;20604;-74
2022/04/23 05:25:43;;;;;;;;;;;9.50;99.90;;;;;;5061052;28;19932;-75
2022/04/23 05:28:10;;;;;;;;;;;9.50;99.90;;;;;;5059619;28;19925;-75
2022/04/23 05:30:37;;;;;;;;;;;9.60;99.90;;;;;;5058323;28;19931;-75
2022/04/23 05:33:07;;;;;;;;;;;9.60;99.90;;;;;;5062147;28;19931;-75
2022/04/23 05:35:34;;;;;;;;;;;9.70;99.90;;;;;;5064022;28;19936;-75
2022/04/23 05:38:00;;;;;;;;;;;9.80;99.90;;;;;;5064833;28;19932;-75
2022/04/23 05:40:27;;;;;;;;;;;10.00;99.90;;;;;;5065147;28;19925;-75
2022/04/23 05:42:59;;;;;;;;;;;10.20;99.90;;;;;;5065918;28;20302;-75
2022/04/23 05:45:27;;;;;;;;;;;10.30;99.90;;;;;;5062909;28;19928;-74
2022/04/23 05:47:54;;;;;;;;;;;10.50;99.90;;;;;;5063709;28;19924;-75
2022/04/23 05:50:22;;;;;;;;;;;10.80;99.90;;;;;;5062439;28;19960;-75
2022/04/23 05:52:48;;;;;;;;;;;11.40;99.90;;;;;;5064988;28;19949;-76
2022/04/23 05:55:15;;;;;;;;;;;11.90;99.90;;;;;;5077833;28;19951;-77
2022/04/23 05:57:45;;;;;;;;;;;12.40;99.90;;;;;;5055171;28;19948;-77
2022/04/23 06:00:11;;;;;;;;;;;12.80;99.90;;;;;;5060402;28;19931;-77
2022/04/23 06:02:38;;;;;;;;;;;13.20;99.90;;;;;;5064216;28;20007;-77
2022/04/23 06:05:05;;;;;;;;;;;13.50;99.90;;;;;;5067645;28;19928;-77
2022/04/23 06:07:32;;;;;;;;;;;13.80;99.90;;;;;;5061103;28;20302;-77
2022/04/23 06:09:59;;;;;;;;;;;14.10;99.90;;;;;;5066427;28;19931;-77
2022/04/23 06:12:26;;;;;;;;;;;14.50;99.90;;;;;;5063741;28;19924;-77
2022/04/23 06:14:52;;;;;;;;;;;14.30;99.90;;;;;;5065609;28;20247;-77
2022/04/23 06:17:26;;;;;;;;;;;14.20;99.90;;;;;;5065473;28;20585;-77
2022/04/23 06:19:53;;;;;;;;;;;14.40;99.90;;;;;;5068251;28;20378;-77
2022/04/23 06:22:20;;;;;;;;;;;14.70;99.90;;;;;;5068085;28;20007;-77
2022/04/23 06:24:46;;;;;;;;;;;14.50;99.90;;;;;;5067649;28;19931;-77
2022/04/23 06:27:13;;;;;;;;;;;14.50;99.90;;;;;;5067284;28;20196;-77
2022/04/23 06:29:40;;;;;;;;;;;14.70;99.90;;;;;;5059118;28;20410;-77
2022/04/23 06:32:10;;;;;;;;;;;14.90;99.90;;;;;;5064910;28;19943;-75
2022/04/23 06:34:37;;;;;;;;;;;15.30;99.90;;;;;;5065434;28;20420;-77
2022/04/23 06:37:05;;;;;;;;;;;15.40;99.90;;;;;;5074984;28;19982;-77
2022/04/23 06:39:32;;;;;;;;;;;16.00;99.90;;;;;;5065352;28;19925;-75
2022/04/23 06:41:59;;;;;;;;;;;16.30;99.90;;;;;;5068604;28;19932;-75
2022/04/23 06:44:25;;;;;;;;;;;16.00;99.90;;;;;;5067003;28;19928;-76
2022/04/23 06:46:52;;;;;;;;;;;16.20;99.90;;;;;;5061818;28;19966;-76
2022/04/23 06:49:18;;;;;;;;;;;16.00;99.90;;;;;;5063892;28;19947;-76
2022/04/23 06:51:45;;;;;;;;;;;15.90;99.90;;;;;;5066780;28;19929;-76
2022/04/23 06:54:12;;;;;;;;;;;16.10;99.90;;;;;;5065134;28;19940;-76
2022/04/23 06:56:39;;;;;;;;;;;16.50;99.90;;;;;;5063282;28;19935;-76
2022/04/23 06:59:05;;;;;;;;;;;16.60;99.90;;;;;;5061125;28;19924;-76
2022/04/23 07:01:32;;;;;;;;;;;16.30;99.90;;;;;;5064458;28;19931;-76
2022/04/23 07:03:59;;;;;;;;;;;16.10;99.90;;;;;;5048127;28;19925;-76
2022/04/23 07:06:26;;;;;;;;;;;16.50;99.90;;;;;;5063803;28;19982;-76
2022/04/23 07:08:52;;;;;;;;;;;16.60;99.90;;;;;;5058036;28;19932;-76
2022/04/23 07:11:19;;;;;;;;;;;16.70;99.90;;;;;;5066801;28;19924;-76
2022/04/23 07:13:46;;;;;;;;;;;16.40;99.90;;;;;;5061168;28;19935;-76
2022/04/23 07:16:14;;;;;;;;;;;16.10;99.90;;;;;;5064323;28;19924;-77
2022/04/23 07:18:41;;;;;;;;;;;15.70;99.90;;;;;;5063155;28;19947;-77
2022/04/23 07:21:07;;;;;;;;;;;15.60;99.90;;;;;;5065933;28;19924;-77
2022/04/23 07:26:19;;;;;;;;;;;15.50;99.90;;;;;;5061849;28;20212;-77
2022/04/23 07:28:46;;;;;;;;;;;15.80;99.90;;;;;;5062340;28;19925;-77
2022/04/23 07:31:12;;;;;;;;;;;15.80;99.90;;;;;;5063003;28;19931;-76
2022/04/23 07:39:09;;;;;;;;;;;15.60;99.90;;;;;;5060888;28;20121;-77
2022/04/23 07:41:36;;;;;;;;;;;15.70;99.90;;;;;;5060683;28;19924;-77
2022/04/23 07:44:05;;;;;;;;;;;15.40;99.90;;;;;;5057290;28;19936;-77
2022/04/23 07:46:32;;;;;;;;;;;15.00;99.90;;;;;;5061453;28;19947;-77
2022/04/23 07:48:59;;;;;;;;;;;14.80;99.90;;;;;;5060321;28;20048;-77
2022/04/23 07:51:27;;;;;;;;;;;14.60;99.90;;;;;;5055463;28;19951;-77
2022/04/23 07:53:59;;;;;;;;;;;15.00;99.90;;;;;;5059405;28;19925;-77
2022/04/23 07:56:26;;;;;;;;;;;15.20;99.90;;;;;;5065956;28;19930;-78
2022/04/23 07:58:53;;;;;;;;;;;15.40;99.90;;;;;;5063992;28;20398;-78
2022/04/23 08:01:20;;;;;;;;;;;15.30;99.90;;;;;;5064466;28;19931;-78
2022/04/23 08:03:47;;;;;;;;;;;15.30;99.90;;;;;;5065327;28;19971;-78
2022/04/23 08:06:14;;;;;;;;;;;15.20;99.90;;;;;;5062596;28;19978;-77
2022/04/23 08:08:43;;;;;;;;;;;15.50;99.90;;;;;;5064845;28;19932;-78
2022/04/23 08:11:10;;;;;;;;;;;16.10;99.90;;;;;;5065502;28;19935;-77
2022/04/23 08:13:37;;;;;;;;;;;16.10;99.90;;;;;;5063419;28;20283;-76
2022/04/23 08:16:04;;;;;;;;;;;16.50;99.90;;;;;;5093266;28;19924;-77
2022/04/23 08:18:31;;;;;;;;;;;16.50;99.90;;;;;;5055440;28;19935;-77
2022/04/23 08:20:58;;;;;;;;;;;16.20;99.90;;;;;;5062139;28;19954;-77
2022/04/23 08:23:24;;;;;;;;;;;16.50;99.90;;;;;;5064709;28;19995;-77
2022/04/23 08:25:55;;;;;;;;;;;16.50;99.90;;;;;;5065464;28;19935;-77
2022/04/23 08:31:09;;;;;;;;;;;16.70;99.90;;;;;;5066058;28;19924;-77
2022/04/23 08:36:22;;;;;;;;;;;17.60;99.90;;;;;;5067082;28;19932;-77
2022/04/23 08:38:48;;;;;;;;;;;17.90;99.90;;;;;;5060020;28;19929;-77
2022/04/23 08:41:15;;;;;;;;;;;18.10;99.90;;;;;;5066992;28;19929;-77
2022/04/23 08:43:42;;;;;;;;;;;18.40;99.90;;;;;;5065646;28;19924;-77
2022/04/23 08:46:12;;;;;;;;;;;18.20;99.90;;;;;;5073054;28;19924;-77
2022/04/23 08:48:42;;;;;;;;;;;18.40;99.90;;;;;;5099988;28;19947;-77
2022/04/23 08:51:11;;;;;;;;;;;17.90;99.90;;;;;;5068453;28;19924;-77
2022/04/23 08:53:40;;;;;;;;;;;17.90;99.90;;;;;;5058657;28;20275;-77
2022/04/23 08:56:09;;;;;;;;;;;18.00;99.90;;;;;;5075939;28;20331;-77
2022/04/23 08:58:39;;;;;;;;;;;18.40;99.90;;;;;;5067850;28;20696;-77
2022/04/23 09:01:06;;;;;;;;;;;18.70;99.90;;;;;;5062795;28;19970;-77
2022/04/23 09:03:33;;;;;;;;;;;18.60;99.90;;;;;;5060436;28;19925;-77
2022/04/23 09:05:59;;;;;;;;;;;18.40;99.90;;;;;;5070860;28;19940;-77
2022/04/23 09:08:29;;;;;;;;;;;18.30;99.90;;;;;;5068515;28;20290;-77
2022/04/23 09:10:56;;;;;;;;;;;17.90;99.90;;;;;;5056660;28;20459;-76
2022/04/23 09:13:32;;;;;;;;;;;18.20;99.90;;;;;;5070526;28;19946;-77
2022/04/23 09:24:20;;;;;;;;;;;18.40;99.90;;;;;;5069563;28;19931;-77
2022/04/23 09:27:05;;;;;;;;;;;18.40;99.90;;;;;;5067806;28;19928;-77
2022/04/23 09:29:32;;;;;;;;;;;18.80;99.90;;;;;;5070075;28;20375;-77
2022/04/23 09:32:20;;;;;;;;;;;18.40;99.90;;;;;;5069183;28;19928;-77
2022/04/23 09:35:02;;;;;;;;;;;18.70;99.90;;;;;;5051054;28;20397;-77
2022/04/23 09:40:19;;;;;;;;;;;19.30;99.90;;;;;;5059504;28;19931;-77
2022/04/23 09:43:05;;;;;;;;;;;19.80;99.90;;;;;;5067930;28;20499;-77
2022/04/23 09:45:39;;;;;;;;;;;19.70;99.90;;;;;;5052092;28;19947;-77
2022/04/23 09:48:05;;;;;;;;;;;18.90;99.90;;;;;;5055745;28;19932;-77
2022/04/23 09:50:36;;;;;;;;;;;18.90;99.90;;;;;;5066100;28;19935;-77
2022/04/23 09:53:10;;;;;;;;;;;18.40;99.90;;;;;;5063303;28;19950;-76
2022/04/23 09:55:37;;;;;;;;;;;18.30;99.90;;;;;;5065849;28;19979;-76
2022/04/23 09:58:08;;;;;;;;;;;18.30;99.90;;;;;;5076575;28;20349;-77
2022/04/23 10:00:36;;;;;;;;;;;18.50;99.90;;;;;;5084219;28;19942;-76
2022/04/23 10:03:08;;;;;;;;;;;18.20;99.90;;;;;;5066739;28;19924;-77
2022/04/23 10:05:38;;;;;;;;;;;17.80;99.90;;;;;;5063395;28;20428;-76
2022/04/23 10:08:12;;;;;;;;;;;17.30;99.90;;;;;;5067602;28;20031;-77
2022/04/23 10:10:58;;;;;;;;;;;17.40;99.90;;;;;;5067439;28;19924;-76
2022/04/23 10:13:29;;;;;;;;;;;17.40;99.90;;;;;;5064133;28;19928;-77
2022/04/23 10:16:02;;;;;;;;;;;17.20;99.90;;;;;;5069541;28;20250;-77
2022/04/23 10:18:29;;;;;;;;;;;17.20;99.90;;;;;;5058354;28;19924;-77
2022/04/23 10:20:58;;;;;;;;;;;17.20;99.90;;;;;;5049627;28;19929;-77
2022/04/23 10:23:43;;;;;;;;;;;17.40;99.90;;;;;;5063018;28;20310;-77
2022/04/23 10:26:37;;;;;;;;;;;17.50;99.90;;;;;;5068308;28;19924;-77
2022/04/23 10:29:16;;;;;;;;;;;17.40;99.90;;;;;;5065693;28;19925;-77
2022/04/23 10:31:43;;;;;;;;;;;17.30;99.90;;;;;;5061427;28;19924;-77
2022/04/23 10:34:29;;;;;;;;;;;17.40;99.90;;;;;;5068346;28;20285;-77
2022/04/23 10:37:14;;;;;;;;;;;17.80;99.90;;;;;;5063479;28;19932;-76
2022/04/23 10:39:42;;;;;;;;;;;17.70;99.90;;;;;;5060410;28;19924;-77
2022/04/23 10:42:13;;;;;;;;;;;17.50;99.90;;;;;;5061165;28;20367;-78
2022/04/23 10:44:40;;;;;;;;;;;17.10;99.90;;;;;;5064030;28;19924;-77
2022/04/23 10:47:10;;;;;;;;;;;16.80;99.90;;;;;;5093823;28;20290;-78
2022/04/23 10:49:37;;;;;;;;;;;16.60;99.90;;;;;;5063485;28;19932;-78
2022/04/23 10:52:05;;;;;;;;;;;16.70;99.90;;;;;;5063163;28;20379;-78
2022/04/23 10:54:40;;;;;;;;;;;16.70;99.90;;;;;;5062022;28;19998;-78
2022/04/23 10:57:08;;;;;;;;;;;16.80;99.90;;;;;;5065716;28;19963;-77
2022/04/23 10:59:53;;;;;;;;;;;16.90;99.90;;;;;;5071408;28;19935;-77
2022/04/23 11:02:23;;;;;;;;;;;16.80;99.90;;;;;;5058640;28;20020;-78
2022/04/23 11:13:41;;;;;;;;;;;18.50;99.90;;;;;;5065272;28;19943;-78
2022/04/23 11:16:08;;;;;;;;;;;18.80;99.90;;;;;;5063093;28;19924;-77
2022/04/23 11:18:39;;;;;;;;;;;19.10;99.90;;;;;;5062564;28;19924;-78
2022/04/23 11:21:26;;;;;;;;;;;19.30;99.90;;;;;;5063525;28;19935;-77
2022/04/23 11:23:54;;;;;;;;;;;19.30;99.90;;;;;;5064864;28;19932;-77
2022/04/23 11:26:42;;;;;;;;;;;19.10;99.90;;;;;;5061550;28;19932;-77
2022/04/23 11:29:09;;;;;;;;;;;18.90;99.90;;;;;;5060362;28;19924;-76
2022/04/23 11:31:36;;;;;;;;;;;19.10;99.90;;;;;;5061522;28;20394;-77
2022/04/23 11:34:04;;;;;;;;;;;19.10;99.90;;;;;;5053030;28;19924;-76
2022/04/23 11:36:35;;;;;;;;;;;19.20;99.90;;;;;;5061108;28;19934;-76
2022/04/23 11:39:07;;;;;;;;;;;19.50;99.90;;;;;;5058823;28;19951;-76
2022/04/23 11:41:50;;;;;;;;;;;18.80;99.90;;;;;;5070719;28;19924;-77
2022/04/23 11:44:17;;;;;;;;;;;18.40;99.90;;;;;;5101309;27;19932;-77
2022/04/23 11:46:45;;;;;;;;;;;18.10;99.90;;;;;;5071426;28;20019;-76
2022/04/23 11:49:25;;;;;;;;;;;17.80;99.90;;;;;;5066119;28;20395;-77
2022/04/23 11:51:58;;;;;;;;;;;17.60;99.90;;;;;;5076902;28;19977;-77
2022/04/23 11:54:33;;;;;;;;;;;17.60;99.90;;;;;;5065924;28;19924;-77
2022/04/23 11:56:59;;;;;;;;;;;17.50;99.90;;;;;;5058420;28;19924;-77
2022/04/23 11:59:34;;;;;;;;;;;17.70;99.90;;;;;;5067733;28;19935;-77
2022/04/23 12:02:01;;;;;;;;;;;17.60;99.90;;;;;;5070706;28;19928;-77
2022/04/23 12:04:39;;;;;;;;;;;17.80;99.90;;;;;;5072816;28;20027;-77
2022/04/23 12:07:10;;;;;;;;;;;17.70;99.90;;;;;;5052942;28;19932;-77
2022/04/23 12:09:52;;;;;;;;;;;17.60;99.90;;;;;;5072767;28;20117;-77
2022/04/23 12:12:23;;;;;;;;;;;17.70;99.90;;;;;;5071815;28;20387;-77
2022/04/23 12:14:50;;;;;;;;;;;17.70;99.90;;;;;;5064251;28;19924;-78
2022/04/23 12:17:27;;;;;;;;;;;17.80;99.90;;;;;;5061172;28;19929;-78
2022/04/23 12:19:54;;;;;;;;;;;17.90;99.90;;;;;;5068211;28;19925;-77
2022/04/23 12:22:28;;;;;;;;;;;18.00;99.90;;;;;;5070163;28;19935;-77
2022/04/23 12:25:10;;;;;;;;;;;18.10;99.90;;;;;;5053768;28;19933;-78
2022/04/23 12:27:57;;;;;;;;;;;18.10;99.90;;;;;;5070815;28;19970;-78
2022/04/23 12:41:37;;;;;;;;;;;16.80;99.90;;;;;;5065897;28;19939;-77
2022/04/23 12:44:20;;;;;;;;;;;17.10;99.90;;;;;;5069082;28;19924;-77
2022/04/23 12:46:52;;;;;;;;;;;17.60;99.90;;;;;;5068375;28;19935;-77
2022/04/23 12:49:21;;;;;;;;;;;17.70;99.90;;;;;;5064276;28;19928;-77
2022/04/23 12:51:54;;;;;;;;;;;17.50;99.90;;;;;;5066662;28;19924;-77
2022/04/23 12:54:21;;;;;;;;;;;17.30;99.90;;;;;;5069399;28;20307;-78
2022/04/23 12:56:48;;;;;;;;;;;17.10;99.90;;;;;;5066894;28;19925;-77
2022/04/23 12:59:15;;;;;;;;;;;17.20;99.90;;;;;;5067785;28;19933;-77
2022/04/23 13:01:41;;;;;;;;;;;17.40;99.90;;;;;;5066612;28;19924;-78
2022/04/23 13:04:11;;;;;;;;;;;17.40;99.90;;;;;;5070344;28;19924;-78
2022/04/23 13:09:23;;;;;;;;;;;17.20;99.90;;;;;;5054193;28;20434;-77
2022/04/23 13:11:56;;;;;;;;;;;17.20;99.90;;;;;;5064427;28;20452;-77
2022/04/23 13:14:23;;;;;;;;;;;17.20;99.90;;;;;;5066333;28;19925;-77
2022/04/23 13:16:49;;;;;;;;;;;17.30;99.90;;;;;;5064539;28;19961;-77
2022/04/23 13:19:22;;;;;;;;;;;17.50;99.90;;;;;;5062714;28;20051;-77
2022/04/23 13:21:48;;;;;;;;;;;17.90;99.90;;;;;;5066765;28;19947;-77
2022/04/23 13:24:16;;;;;;;;;;;18.20;99.90;;;;;;5067758;28;19925;-77
2022/04/23 13:26:42;;;;;;;;;;;18.50;99.90;;;;;;5063332;28;19929;-76
2022/04/23 13:29:09;;;;;;;;;;;18.80;99.90;;;;;;5069578;28;20231;-76
2022/04/23 13:31:39;;;;;;;;;;;18.70;99.90;;;;;;5068182;28;19938;-76
2022/04/23 13:34:07;;;;;;;;;;;18.60;99.90;;;;;;5068567;28;19928;-77
2022/04/23 13:36:33;;;;;;;;;;;18.40;99.90;;;;;;5062539;28;19932;-77
2022/04/23 13:39:00;;;;;;;;;;;18.00;99.90;;;;;;5066718;28;19963;-77
2022/04/23 13:41:27;;;;;;;;;;;18.00;99.90;;;;;;5066554;28;19935;-78
2022/04/23 13:43:53;;;;;;;;;;;17.50;99.90;;;;;;5061340;28;19936;-78
2022/04/23 13:46:20;;;;;;;;;;;17.10;99.90;;;;;;5070205;28;19930;-78
2022/04/23 13:48:47;;;;;;;;;;;17.20;99.90;;;;;;5062455;28;19991;-78
2022/04/23 13:51:14;;;;;;;;;;;17.20;99.90;;;;;;5063619;28;19984;-77
2022/04/23 13:53:40;;;;;;;;;;;17.10;99.90;;;;;;5070117;28;20223;-78
2022/04/23 13:56:07;;;;;;;;;;;17.20;99.90;;;;;;5061849;28;19943;-78
2022/04/23 13:58:38;;;;;;;;;;;17.20;99.90;;;;;;5066436;28;19924;-78
2022/04/23 14:01:05;;;;;;;;;;;17.70;99.90;;;;;;5060641;28;19929;-78
2022/04/23 14:11:48;;;;;;;;;;;17.40;99.90;;;;;;5057152;28;19925;-78
2022/04/23 14:14:15;;;;;;;;;;;17.00;99.90;;;;;;5063976;28;19925;-78
2022/04/23 14:16:43;;;;;;;;;;;17.10;99.90;;;;;;5059920;28;19955;-77
2022/04/23 14:19:10;;;;;;;;;;;17.20;99.90;;;;;;5059329;28;20374;-78
2022/04/23 14:21:37;;;;;;;;;;;17.10;99.90;;;;;;5053203;28;19939;-76
2022/04/23 14:24:03;;;;;;;;;;;17.40;99.90;;;;;;5054919;28;20045;-76
2022/04/23 14:26:30;;;;;;;;;;;17.50;99.90;;;;;;5066976;28;20129;-78
2022/04/23 14:28:57;;;;;;;;;;;17.50;99.90;;;;;;5053686;28;19933;-76
2022/04/23 14:31:24;;;;;;;;;;;17.40;99.90;;;;;;5061246;28;19928;-77
2022/04/23 14:33:51;;;;;;;;;;;17.50;99.90;;;;;;5060528;28;20361;-77
2022/04/23 14:36:17;;;;;;;;;;;17.30;99.90;;;;;;5053679;28;19931;-76
2022/04/23 14:38:44;;;;;;;;;;;17.10;99.90;;;;;;5061584;28;19933;-77
2022/04/23 14:41:11;;;;;;;;;;;17.00;99.90;;;;;;5063618;28;20295;-76
2022/04/23 14:43:37;;;;;;;;;;;17.00;99.90;;;;;;5056704;28;19935;-79
2022/04/23 14:46:04;;;;;;;;;;;16.70;99.90;;;;;;5062995;28;19928;-78
2022/04/23 14:48:30;;;;;;;;;;;16.70;99.90;;;;;;5062719;28;19978;-77
2022/04/23 14:53:44;;;;;;;;;;;16.80;99.90;;;;;;5065555;28;20026;-78
2022/04/23 14:56:10;;;;;;;;;;;17.00;99.90;;;;;;5055153;28;19931;-78
2022/04/23 14:58:39;;;;;;;;;;;17.30;99.90;;;;;;5064041;28;19964;-78
2022/04/23 15:01:11;;;;;;;;;;;17.50;99.90;;;;;;5064386;28;19924;-78
2022/04/23 15:03:38;;;;;;;;;;;17.20;99.90;;;;;;5064836;28;19993;-77
2022/04/23 15:06:05;;;;;;;;;;;17.00;99.90;;;;;;5062663;28;19924;-78
2022/04/23 15:08:35;;;;;;;;;;;16.80;99.90;;;;;;5064375;28;20403;-78
2022/04/23 15:11:02;;;;;;;;;;;16.80;99.90;;;;;;5059207;28;19935;-78
2022/04/23 15:13:29;;;;;;;;;;;16.80;99.90;;;;;;5060233;28;19931;-78
2022/04/23 15:15:57;;;;;;;;;;;16.60;99.90;;;;;;5061631;28;19932;-78
2022/04/23 15:18:24;;;;;;;;;;;16.50;99.90;;;;;;5065038;28;19928;-78
2022/04/23 15:20:53;;;;;;;;;;;16.60;99.90;;;;;;5064046;28;19933;-78
2022/04/23 15:23:19;;;;;;;;;;;16.80;99.90;;;;;;5062972;28;19937;-78
2022/04/23 15:25:46;;;;;;;;;;;17.10;99.90;;;;;;5062834;28;20175;-78
2022/04/23 15:28:14;;;;;;;;;;;17.20;99.90;;;;;;5067163;28;20018;-77
2022/04/23 15:30:40;;;;;;;;;;;17.60;99.90;;;;;;5067425;28;19940;-77